Centerville, GA

12:49 PM EDT on May 25, 2015 (GMT -0400)
KGACENTE2 | | Change Station
CLOSE
Current Station
Personal Weather Station
Location: Centerville, GA
Elevation: 450 ft
Nearby Weather Stations

Elev 450 ft 32.64 °N, 83.69 °W | Updated 1 minute ago

Mostly Cloudy
Mostly Cloudy
80.7 °F
Feels Like 85 °F
N
2.0
Wind Variable Wind from East
Gusts 6.0 mph

Today
High -- | Low -- °F
--% Chance of Precip.
Yesterday
High -- | Low -- °F
Precip. -- in
6:30 AM 8:33 PM
Waxing Crescent, 50% visible
Pressure 30.26 in
Visibility 10.0 miles
Clouds Scattered Clouds 2900 ft
Overcast 3600 ft
Heat Index 85 °F
Dew Point 72 °F
Humidity 75%
Rainfall 0.00 in
Snow Depth Not available.
UV 4 out of 12
Pollen 4.10 out of 12
Air Quality Not available.
Flu Activity Sporadic
SPECI KMCN 251632Z VRB05KT 10SM SCT029 OVC036 28/19 A3026

More Conditions Fewer Conditions

Pressure 30.26 in
Visibility 10.0 miles
Clouds Scattered Clouds 2900 ft
Overcast 3600 ft
Heat Index 85 °F
Dew Point 72 °F
Humidity 75%
Rainfall 0.00 in
Snow Depth Not available.
UV 4 out of 12
Pollen 4.10 out of 12
Air Quality Not available.
Flu Activity Sporadic
SPECI KMCN 251632Z VRB05KT 10SM SCT029 OVC036 28/19 A3026

More Conditions Fewer Conditions

10-Day Weather Forecast

Almanac

Astronomy

May. 25, 2015 Rise Set
Actual Time
Civil Twilight
Nautical Twilight
Astronomical Twilight
Moon
Length of Visible Light
Length of Day
Tomorrow will be .
, % of the Moon is Illuminated

Today's Extremes

State Highs State Lows

Community

WunderPhotos

Upload Photos

1,824,057 photos uploaded!

WunderBlogs® & News

Nearby

Air Quality

  Air Quality AQ Index Pollutant
Not available.

Snow Depth

Station Depth Elevation

Earthquake Activity

City Distance Mag. Time & Date
Minimum magnitude displayed is 2.5.

Coastal Water Temperatures

Place Temperature

Stations

Nearby Weather Stations

Station Location Temp. Windchill Dew Point Humidity Wind Precip. Elev Updated Type